Time;durP1;ratioP1;P1;durP2;ratioP2;P2;SDS_P1;SDS_P2;PMS_P1;PMS_P2;Temp;Humidity;BMP_temperature;BMP_pressure;BME280_temperature;BME280_humidity;BME280_pressure;Samples;Min_cycle;Max_cycle;Signal;HPM_P1;HPM_P2
2021/05/10 00:01:11;;;;;;;0.3;0.3;;;;;;;18.76;37.60352;930.6947;;;;
2021/05/10 00:03:37;;;;;;;0.3;0.2;;;;;;;18.89;36.15918;930.647;;;;
2021/05/10 00:06:02;;;;;;;0.6;0.5;;;;;;;18.88;38.0332;930.5659;;;;
2021/05/10 00:08:27;;;;;;;0.2;0.2;;;;;;;18.71;38.50586;930.5103;;;;
2021/05/10 00:10:53;;;;;;;0.1;0.1;;;;;;;18.59;38.43652;930.5912;;;;
2021/05/10 00:13:18;;;;;;;0.4;0.3;;;;;;;18.59;37.99609;930.592;;;;
2021/05/10 00:15:43;;;;;;;0.5;0.3;;;;;;;18.57;38.27246;930.721;;;;
2021/05/10 00:18:08;;;;;;;0.5;0.3;;;;;;;18.58;37.73926;930.8127;;;;
2021/05/10 00:20:33;;;;;;;0.5;0.2;;;;;;;18.58;37.00684;931.0303;;;;
2021/05/10 00:22:58;;;;;;;0.3;0.2;;;;;;;18.62;37.26563;930.9662;;;;
2021/05/10 00:25:23;;;;;;;0;0;;;;;;;18.68;38.45801;930.9532;;;;
2021/05/10 00:27:48;;;;;;;0.3;0.3;;;;;;;18.75;35.37988;930.7227;;;;
2021/05/10 00:30:15;;;;;;;0.3;0.2;;;;;;;18.89;34.23926;930.7472;;;;
2021/05/10 00:32:40;;;;;;;0.2;0.2;;;;;;;19.38;33.1709;930.7416;;;;
2021/05/10 00:35:05;;;;;;;0.2;0.2;;;;;;;19.43;33.32617;930.6358;;;;
2021/05/10 00:37:30;;;;;;;0.5;0.2;;;;;;;20.07;31.13379;930.7687;;;;
2021/05/10 00:39:55;;;;;;;0.1;0.1;;;;;;;20.15;32.69141;930.8594;;;;
2021/05/10 00:42:20;;;;;;;1.3;0.4;;;;;;;20.13;31.65137;930.7519;;;;
2021/05/10 00:44:45;;;;;;;0.3;0.3;;;;;;;19.98;34.02051;930.813;;;;
2021/05/10 00:47:11;;;;;;;0.3;0.1;;;;;;;19.89;33.08008;930.82;;;;
2021/05/10 00:49:36;;;;;;;0.5;0.3;;;;;;;19.83;34.14941;930.6767;;;;
2021/05/10 00:52:01;;;;;;;1.6;0.4;;;;;;;19.53;35.69922;930.55;;;;
2021/05/10 00:54:26;;;;;;;0.2;0.1;;;;;;;19.41;36.01563;930.5767;;;;
2021/05/10 00:56:52;;;;;;;1.1;0.3;;;;;;;19.12;36.07422;930.5916;;;;
2021/05/10 00:59:17;;;;;;;2.3;0.3;;;;;;;18.88;36.53125;930.7006;;;;
2021/05/10 01:01:44;;;;;;;0.1;0.1;;;;;;;18.83;36.74805;930.6476;;;;
2021/05/10 01:04:09;;;;;;;0.2;0.2;;;;;;;18.79;36.43066;930.6736;;;;
2021/05/10 01:06:34;;;;;;;0.5;0.3;;;;;;;19.14;33.52539;930.6839;;;;
2021/05/10 01:08:59;;;;;;;0.2;0.2;;;;;;;19.36;35.24316;930.7786;;;;
2021/05/10 01:11:24;;;;;;;0.4;0.3;;;;;;;19.39;35.32715;930.7291;;;;
2021/05/10 01:13:54;;;;;;;0.9;0.5;;;;;;;19.29;35.61035;930.8524;;;;
2021/05/10 01:16:19;;;;;;;0.2;0.1;;;;;;;19.29;35.41211;930.9442;;;;
2021/05/10 01:18:46;;;;;;;0.5;0.3;;;;;;;19.54;33.38086;930.6411;;;;
2021/05/10 01:21:10;;;;;;;0.7;0.5;;;;;;;19.49;33.69141;930.5287;;;;
2021/05/10 01:23:35;;;;;;;0.2;0.2;;;;;;;19.49;35.00879;930.6289;;;;
2021/05/10 01:26:01;;;;;;;0.1;0.1;;;;;;;19.42;35.48047;930.4939;;;;
2021/05/10 01:28:26;;;;;;;0.1;0.1;;;;;;;19.33;34.86719;930.545;;;;
2021/05/10 01:30:51;;;;;;;0.2;0.2;;;;;;;19.09;36.71191;930.4749;;;;
2021/05/10 01:33:16;;;;;;;0.2;0.2;;;;;;;18.86;36.57617;930.7095;;;;
2021/05/10 01:35:42;;;;;;;0.2;0.2;;;;;;;18.89;37.28809;930.7375;;;;
2021/05/10 01:38:07;;;;;;;0.3;0.2;;;;;;;18.95;36.50098;930.7525;;;;
2021/05/10 01:40:34;;;;;;;0.2;0.1;;;;;;;19.09;34.08008;930.7863;;;;
2021/05/10 01:42:59;;;;;;;0.2;0.2;;;;;;;19.56;32.76367;930.6752;;;;
2021/05/10 01:45:24;;;;;;;0.4;0.3;;;;;;;20.16;31.85156;930.6301;;;;
2021/05/10 01:47:49;;;;;;;14.2;0.6;;;;;;;20.37;31.80859;930.5939;;;;
2021/05/10 01:50:14;;;;;;;0.7;0.4;;;;;;;20.48;31.29102;930.649;;;;
2021/05/10 01:52:40;;;;;;;0.4;0.4;;;;;;;20.3;33.7998;930.7714;;;;
2021/05/10 01:55:05;;;;;;;0.2;0.2;;;;;;;20.02;35.15527;930.8699;;;;
2021/05/10 01:57:32;;;;;;;3.1;0.4;;;;;;;20.03;35.32031;930.5497;;;;
2021/05/10 01:59:57;;;;;;;0.1;0.1;;;;;;;19.65;35.70898;930.5895;;;;
2021/05/10 02:02:22;;;;;;;0.3;0.3;;;;;;;19.37;35.59375;930.5975;;;;
2021/05/10 02:04:47;;;;;;;0.4;0.3;;;;;;;19.18;36.82422;930.2699;;;;
2021/05/10 02:07:14;;;;;;;0.1;0.1;;;;;;;19.14;36.65723;930.3528;;;;
2021/05/10 02:09:39;;;;;;;0.1;0.1;;;;;;;18.98;36.65625;930.5695;;;;
2021/05/10 02:12:05;;;;;;;0.2;0.2;;;;;;;19.06;34.99805;930.5469;;;;
2021/05/10 02:14:30;;;;;;;0.2;0.2;;;;;;;19.3;35.50586;930.5499;;;;
2021/05/10 02:16:55;;;;;;;7.2;0.5;;;;;;;19.29;36.4834;930.5399;;;;
2021/05/10 02:19:21;;;;;;;0.5;0.3;;;;;;;19.4;34.69824;930.4171;;;;
2021/05/10 02:21:45;;;;;;;0.6;0.3;;;;;;;19.48;35.66016;930.2506;;;;
2021/05/10 02:24:12;;;;;;;0.7;0.4;;;;;;;19.41;35.62012;930.3861;;;;
2021/05/10 02:26:37;;;;;;;0.3;0.2;;;;;;;19.18;36.64941;930.2173;;;;
2021/05/10 02:29:02;;;;;;;1.4;0.3;;;;;;;19.16;36.29785;930.291;;;;
2021/05/10 02:31:27;;;;;;;0.8;0.3;;;;;;;19.16;37.20605;930.4241;;;;
2021/05/10 02:33:52;;;;;;;0.8;0.3;;;;;;;19.33;35.46094;930.4191;;;;
2021/05/10 02:36:18;;;;;;;2.8;0.7;;;;;;;19.38;36.17676;930.2756;;;;
2021/05/10 02:38:44;;;;;;;0.3;0.2;;;;;;;19.33;36.87109;930.2646;;;;
2021/05/10 02:41:09;;;;;;;0.6;0.5;;;;;;;19.35;35.52148;930.378;;;;
2021/05/10 02:43:35;;;;;;;0.2;0.2;;;;;;;19.54;36.27148;930.2509;;;;
2021/05/10 02:46:00;;;;;;;0.5;0.2;;;;;;;19.49;35.60254;930.2147;;;;
2021/05/10 02:49:01;;;;;;;0.9;0.3;;;;;;;19.65;34.40332;930.264;;;;
2021/05/10 02:51:27;;;;;;;0.1;0.1;;;;;;;19.99;34.76758;929.9943;;;;
2021/05/10 02:53:52;;;;;;;1;0.3;;;;;;;19.68;36.62109;930.1216;;;;
2021/05/10 02:56:17;;;;;;;0.6;0.3;;;;;;;19.52;36.09473;930.2985;;;;
2021/05/10 02:58:44;;;;;;;0.4;0.4;;;;;;;19.52;34.89453;930.37;;;;
2021/05/10 03:01:09;;;;;;;1.5;0.8;;;;;;;19.63;35.55566;930.1767;;;;
2021/05/10 03:03:35;;;;;;;0.1;0.1;;;;;;;19.62;35.66016;930.11;;;;
2021/05/10 03:06:01;;;;;;;0.5;0.4;;;;;;;19.58;35.36426;930.2852;;;;
2021/05/10 03:08:27;;;;;;;0.3;0.2;;;;;;;19.68;34.4873;930.2919;;;;
2021/05/10 03:10:53;;;;;;;0.4;0.3;;;;;;;19.95;34.00684;930.1686;;;;
2021/05/10 03:13:20;;;;;;;0.2;0.2;;;;;;;20.04;34.45703;930.133;;;;
2021/05/10 03:15:49;;;;;;;0.8;0.3;;;;;;;20.07;34.61133;930.3259;;;;
2021/05/10 03:18:14;;;;;;;0.2;0.2;;;;;;;20;34.79199;930.4222;;;;
2021/05/10 03:20:44;;;;;;;0.4;0.3;;;;;;;19.87;34.80566;930.4127;;;;
2021/05/10 03:23:11;;;;;;;0.2;0.2;;;;;;;19.93;34.4375;930.3237;;;;
2021/05/10 03:25:37;;;;;;;1.6;0.5;;;;;;;20.12;33.77441;930.1816;;;;
2021/05/10 03:28:04;;;;;;;0.2;0.2;;;;;;;20.19;34.1543;930.358;;;;
2021/05/10 03:31:14;;;;;;;0.3;0.2;;;;;;;20.19;34.50391;930.3306;;;;
2021/05/10 03:33:40;;;;;;;0.9;0.6;;;;;;;20.1;35.05762;930.3642;;;;
2021/05/10 03:36:05;;;;;;;0.6;0.4;;;;;;;20.07;34.68066;930.3677;;;;
2021/05/10 03:38:32;;;;;;;1.2;0.5;;;;;;;20.27;33.16699;930.175;;;;
2021/05/10 03:40:57;;;;;;;0.1;0.1;;;;;;;20.81;32.27344;930.1086;;;;
2021/05/10 03:43:23;;;;;;;2.2;0.4;;;;;;;21.04;32.16016;930.1415;;;;
2021/05/10 03:45:48;;;;;;;0.5;0.4;;;;;;;21.1;31.87305;930.1267;;;;
2021/05/10 03:48:13;;;;;;;0.1;0.1;;;;;;;21.07;32;930.1917;;;;
2021/05/10 03:50:40;;;;;;;1.1;0.3;;;;;;;21.11;32.06152;930.1429;;;;
2021/05/10 03:53:05;;;;;;;0.1;0.1;;;;;;;21.21;31.86914;930.2449;;;;
2021/05/10 03:55:32;;;;;;;0;0;;;;;;;21.22;31.96289;930.2266;;;;
2021/05/10 03:57:58;;;;;;;0.5;0.4;;;;;;;21.22;31.95215;930.2825;;;;
2021/05/10 04:02:31;;;;;;;0.1;0.1;;;;;;;21.07;32.22168;930.5375;;;;
2021/05/10 04:05:04;;;;;;;1.1;0.5;;;;;;;21.02;32.83789;930.3632;;;;
2021/05/10 04:07:40;;;;;;;0.7;0.4;;;;;;;20.97;32.41309;930.553;;;;
2021/05/10 04:14:37;;;;;;;0.5;0.4;;;;;;;21.21;32.40723;930.7446;;;;
2021/05/10 04:17:06;;;;;;;0.8;0.3;;;;;;;21.23;32.28027;930.6216;;;;
2021/05/10 04:19:31;;;;;;;2.3;0.7;;;;;;;21.24;32.39746;930.8045;;;;
2021/05/10 04:21:56;;;;;;;0.5;0.3;;;;;;;21.27;32.10742;930.6859;;;;
2021/05/10 04:24:21;;;;;;;0.1;0.1;;;;;;;21.19;32.49902;930.752;;;;
2021/05/10 04:26:47;;;;;;;0.3;0.3;;;;;;;21.14;33.24414;930.9004;;;;
2021/05/10 04:29:13;;;;;;;0.3;0.2;;;;;;;20.88;34.18359;931.0496;;;;
2021/05/10 04:31:39;;;;;;;0.4;0.3;;;;;;;20.68;35.0332;930.9711;;;;
2021/05/10 04:34:04;;;;;;;2.1;0.4;;;;;;;20.47;35.4248;930.9081;;;;
2021/05/10 04:36:30;;;;;;;1.1;0.4;;;;;;;20.3;35.70313;930.9047;;;;
2021/05/10 04:38:55;;;;;;;1.4;0.4;;;;;;;20.21;35.43945;930.9967;;;;
2021/05/10 04:41:22;;;;;;;0.3;0.2;;;;;;;20.24;35.53516;930.9039;;;;
2021/05/10 04:43:47;;;;;;;2;0.4;;;;;;;20.13;35.8418;930.772;;;;
2021/05/10 04:46:13;;;;;;;0.7;0.5;;;;;;;20.13;36.22656;930.8859;;;;
2021/05/10 04:48:40;;;;;;;0.2;0.2;;;;;;;20.18;35.42578;930.7352;;;;
2021/05/10 04:51:04;;;;;;;0.4;0.3;;;;;;;20.32;35.97363;930.8077;;;;
2021/05/10 04:53:29;;;;;;;0.1;0.1;;;;;;;20.2;36.83887;930.8211;;;;
2021/05/10 04:55:57;;;;;;;1;0.5;;;;;;;20.03;36.27637;931.1476;;;;
2021/05/10 04:58:22;;;;;;;0.8;0.5;;;;;;;20.04;35.54199;930.8821;;;;
2021/05/10 05:00:47;;;;;;;1.6;0.3;;;;;;;20.26;34.75488;930.9103;;;;
2021/05/10 05:03:12;;;;;;;0.3;0.3;;;;;;;20.27;36.09766;930.8234;;;;
2021/05/10 05:05:39;;;;;;;4;0.6;;;;;;;19.97;37.3916;930.7578;;;;
2021/05/10 05:08:04;;;;;;;0.1;0.1;;;;;;;19.84;37.84668;930.9633;;;;
2021/05/10 05:10:32;;;;;;;0.3;0.2;;;;;;;19.83;36.84277;930.9612;;;;
2021/05/10 05:12:57;;;;;;;1;0.2;;;;;;;19.67;37.79785;931.0048;;;;
2021/05/10 05:15:30;;;;;;;0.4;0.2;;;;;;;19.57;39.35156;931.0371;;;;
2021/05/10 05:17:56;;;;;;;6.1;0.7;;;;;;;19.82;38.41699;931.0195;;;;
2021/05/10 05:20:21;;;;;;;2;1.1;;;;;;;19.59;39.17773;931.0479;;;;
2021/05/10 05:22:47;;;;;;;0.4;0.3;;;;;;;19.78;38.44824;931.134;;;;
2021/05/10 05:25:12;;;;;;;0.1;0.1;;;;;;;19.95;38.69629;931.0009;;;;
2021/05/10 05:27:40;;;;;;;3.1;0.4;;;;;;;20.17;37.93457;931.0396;;;;
2021/05/10 05:30:05;;;;;;;0.8;0.6;;;;;;;20.28;37.62891;931.0048;;;;
2021/05/10 05:32:31;;;;;;;0.6;0.3;;;;;;;20.4;37.50879;931.0852;;;;
2021/05/10 05:34:56;;;;;;;0.7;0.3;;;;;;;20.48;37.97168;930.988;;;;
2021/05/10 05:38:09;;;;;;;0.3;0.3;;;;;;;20.35;37.62207;930.9455;;;;
2021/05/10 05:40:33;;;;;;;3.8;0.5;;;;;;;20.51;38.17285;931.1769;;;;
2021/05/10 05:42:58;;;;;;;2.1;0.5;;;;;;;20.49;37.93848;931.1499;;;;
2021/05/10 05:45:25;;;;;;;1.8;0.7;;;;;;;21.08;37.24023;931.3175;;;;
2021/05/10 05:47:50;;;;;;;3.4;0.3;;;;;;;22.43;33.93945;931.3466;;;;
2021/05/10 05:50:16;;;;;;;0.2;0.2;;;;;;;24.29;31.66602;931.17;;;;
2021/05/10 05:52:41;;;;;;;1;0.4;;;;;;;25.97;28.94727;931.18;;;;
2021/05/10 05:55:06;;;;;;;0.8;0.3;;;;;;;26.73;29.0791;931.1544;;;;
2021/05/10 05:57:33;;;;;;;3.5;0.5;;;;;;;28.55;25.36816;931.1465;;;;
2021/05/10 06:00:01;;;;;;;0.4;0.3;;;;;;;28.25;24.98242;931.1398;;;;
2021/05/10 06:02:24;;;;;;;0.3;0.2;;;;;;;27.03;28.19824;931.1295;;;;
2021/05/10 06:04:50;;;;;;;0.4;0.2;;;;;;;27.76;26.21387;931.0429;;;;
2021/05/10 06:07:14;;;;;;;0.2;0.2;;;;;;;28.76;24.3916;931.0089;;;;
2021/05/10 06:09:40;;;;;;;0.1;0.1;;;;;;;28.87;24.63672;931.0029;;;;
2021/05/10 06:12:08;;;;;;;0.9;0.5;;;;;;;29.07;25.39746;931.0193;;;;
2021/05/10 06:14:33;;;;;;;0.9;0.5;;;;;;;28.38;25.23926;931.0416;;;;
2021/05/10 06:17:01;;;;;;;0.7;0.4;;;;;;;27.66;26.93262;931.0142;;;;
2021/05/10 06:19:26;;;;;;;1.6;0.5;;;;;;;28.31;25.90137;931.12;;;;
2021/05/10 06:21:53;;;;;;;0.6;0.3;;;;;;;27.32;27.88477;931.0701;;;;
2021/05/10 06:24:18;;;;;;;0.4;0.3;;;;;;;25.72;28.39941;931.0687;;;;
2021/05/10 06:26:45;;;;;;;1;0.4;;;;;;;25.9;27.5;931.1609;;;;
2021/05/10 06:29:09;;;;;;;0.4;0.2;;;;;;;26.38;26.78516;931.137;;;;
2021/05/10 06:31:34;;;;;;;0.3;0.2;;;;;;;26.72;26.63965;931.1342;;;;
2021/05/10 06:34:02;;;;;;;1.2;0.3;;;;;;;26.42;27.09473;931.1987;;;;
2021/05/10 06:36:26;;;;;;;2;0.4;;;;;;;25.47;28.99805;931.2445;;;;
2021/05/10 06:38:51;;;;;;;0.3;0.3;;;;;;;25.22;29.56055;931.1746;;;;
2021/05/10 06:41:18;;;;;;;0.9;0.6;;;;;;;25.32;29.9209;931.2953;;;;
2021/05/10 06:43:43;;;;;;;0.1;0.1;;;;;;;25.76;29.12402;931.3742;;;;
2021/05/10 06:46:09;;;;;;;1.4;0.6;;;;;;;26.52;27.10059;931.418;;;;
2021/05/10 06:48:35;;;;;;;2;0.7;;;;;;;26.9;25.92676;931.5334;;;;
2021/05/10 06:51:01;;;;;;;1.5;0.3;;;;;;;27.95;25.52441;931.3733;;;;
2021/05/10 06:53:26;;;;;;;0.4;0.3;;;;;;;28.4;25.87012;931.3661;;;;
2021/05/10 06:55:52;;;;;;;0.3;0.2;;;;;;;29.56;24.65039;931.3527;;;;
2021/05/10 06:58:17;;;;;;;0.5;0.4;;;;;;;31.1;22.4375;931.3086;;;;
2021/05/10 07:00:43;;;;;;;0.1;0.1;;;;;;;29.63;23.3418;931.2866;;;;
2021/05/10 07:03:08;;;;;;;1.4;0.3;;;;;;;29.62;23.3418;931.219;;;;
2021/05/10 07:05:35;;;;;;;0.4;0.2;;;;;;;29.51;24.52832;931.2244;;;;
2021/05/10 07:08:00;;;;;;;0.5;0.4;;;;;;;29.83;24.37891;931.3156;;;;
2021/05/10 07:10:27;;;;;;;0.5;0.4;;;;;;;30.31;23.49707;931.3094;;;;
2021/05/10 07:12:52;;;;;;;3;0.4;;;;;;;31.06;21.34766;931.2648;;;;
2021/05/10 07:15:24;;;;;;;0.5;0.3;;;;;;;31.18;21.60449;931.1132;;;;
2021/05/10 07:17:50;;;;;;;0.5;0.2;;;;;;;30.84;22.96289;931.097;;;;
2021/05/10 07:20:15;;;;;;;0.7;0.4;;;;;;;30.19;23.70605;931.0374;;;;
2021/05/10 07:22:42;;;;;;;0.1;0.1;;;;;;;30.3;22.64844;931.0209;;;;
2021/05/10 07:25:07;;;;;;;0.1;0.1;;;;;;;29.66;24.39355;931.0094;;;;
2021/05/10 07:27:33;;;;;;;2.2;0.4;;;;;;;30.96;23.00488;931.0842;;;;
2021/05/10 07:29:59;;;;;;;0.4;0.2;;;;;;;32.26;19.97656;931.0483;;;;
2021/05/10 07:32:24;;;;;;;0;0;;;;;;;32.93;19.10645;931.0539;;;;
2021/05/10 07:34:49;;;;;;;0.2;0.2;;;;;;;33.3;19.95117;931.1041;;;;
2021/05/10 07:37:16;;;;;;;1.4;0.3;;;;;;;34.89;18.13867;931.1222;;;;
2021/05/10 07:39:41;;;;;;;0.3;0.3;;;;;;;35.95;16.2832;931.0494;;;;
2021/05/10 07:42:08;;;;;;;1.1;0.6;;;;;;;33.8;17.33789;930.9975;;;;
2021/05/10 07:44:32;;;;;;;0.4;0.2;;;;;;;32.97;18.0625;930.9072;;;;
2021/05/10 07:46:59;;;;;;;0.3;0.2;;;;;;;32.69;18.0752;930.8583;;;;
2021/05/10 07:49:24;;;;;;;0.2;0.2;;;;;;;33.95;19.13672;930.9233;;;;
2021/05/10 07:51:50;;;;;;;7.6;0.5;;;;;;;33.53;18.89063;930.8767;;;;
2021/05/10 07:54:15;;;;;;;0.1;0.1;;;;;;;34.44;18.45898;930.8049;;;;
2021/05/10 07:56:41;;;;;;;0.1;0.1;;;;;;;32.5;20.68359;930.9016;;;;
2021/05/10 07:59:09;;;;;;;0.1;0.1;;;;;;;31.77;20.92578;930.8953;;;;
2021/05/10 08:01:33;;;;;;;0.9;0.6;;;;;;;33.52;18.61328;930.9587;;;;
2021/05/10 08:03:58;;;;;;;0.5;0.3;;;;;;;34.89;17.42676;930.9489;;;;
2021/05/10 08:06:24;;;;;;;0.5;0.4;;;;;;;35.72;18.0625;930.8914;;;;
2021/05/10 08:08:51;;;;;;;1.2;0.3;;;;;;;37.59;15.15234;930.9333;;;;
2021/05/10 08:11:18;;;;;;;1.4;0.5;;;;;;;37.69;13.89355;930.8892;;;;
2021/05/10 08:13:42;;;;;;;0.2;0.2;;;;;;;37.03;15.00098;930.8416;;;;
2021/05/10 08:16:12;;;;;;;0.5;0.4;;;;;;;36.4;15.94824;930.8175;;;;
2021/05/10 08:18:41;;;;;;;0.6;0.3;;;;;;;36.64;16.3916;930.7701;;;;
2021/05/10 08:21:04;;;;;;;0.1;0.1;;;;;;;34.75;16.95215;930.6975;;;;
2021/05/10 08:23:30;;;;;;;3.3;0.7;;;;;;;34.22;18.24512;930.622;;;;
2021/05/10 08:25:56;;;;;;;0.2;0.2;;;;;;;32.24;21.37891;930.5912;;;;
2021/05/10 08:28:22;;;;;;;1.7;0.5;;;;;;;32.41;18.60352;930.5769;;;;
2021/05/10 08:30:48;;;;;;;1;0.4;;;;;;;31.26;22.32617;930.5126;;;;
2021/05/10 08:33:14;;;;;;;1.1;0.4;;;;;;;31.78;19.42871;930.435;;;;
2021/05/10 08:35:39;;;;;;;0.4;0.3;;;;;;;31.12;19.32813;930.4109;;;;
2021/05/10 08:38:05;;;;;;;2.4;0.5;;;;;;;30.62;19.78516;930.3758;;;;
2021/05/10 08:40:30;;;;;;;1.8;0.5;;;;;;;30.57;21.61133;930.4061;;;;
2021/05/10 08:42:58;;;;;;;14.3;2.2;;;;;;;30.67;20.81543;930.3797;;;;
2021/05/10 08:45:23;;;;;;;3.1;0.8;;;;;;;31.07;20.64258;930.3489;;;;
2021/05/10 08:47:49;;;;;;;0.7;0.5;;;;;;;31.89;19.50586;930.351;;;;
2021/05/10 08:50:14;;;;;;;0.5;0.5;;;;;;;30.34;19.88086;930.4203;;;;
2021/05/10 08:52:39;;;;;;;1;0.7;;;;;;;28.9;23.09082;930.4111;;;;
2021/05/10 08:55:04;;;;;;;2.9;1.5;;;;;;;29.06;21.97949;930.3708;;;;
2021/05/10 08:57:30;;;;;;;3;1.1;;;;;;;28.63;22.71973;930.438;;;;
2021/05/10 08:59:55;;;;;;;1.9;0.8;;;;;;;28.95;22.41406;930.4455;;;;
2021/05/10 09:02:22;;;;;;;1.2;0.6;;;;;;;28.68;21.5332;930.2819;;;;
2021/05/10 09:04:47;;;;;;;2.2;0.3;;;;;;;29;21.70313;930.3455;;;;
2021/05/10 09:07:13;;;;;;;0.7;0.5;;;;;;;30.07;20.50098;930.4272;;;;
2021/05/10 09:09:38;;;;;;;2.7;0.5;;;;;;;31.37;21.5293;930.3524;;;;
2021/05/10 09:12:05;;;;;;;0.9;0.6;;;;;;;31.42;19.16211;930.2952;;;;
2021/05/10 09:14:29;;;;;;;3.4;0.4;;;;;;;31.53;20.55566;930.3745;;;;
2021/05/10 09:16:54;;;;;;;0.7;0.3;;;;;;;31.74;18.82813;930.3528;;;;
2021/05/10 09:19:19;;;;;;;0.1;0.1;;;;;;;30.57;20.2373;930.4252;;;;
2021/05/10 09:21:45;;;;;;;1.8;0.5;;;;;;;29.77;21.15527;930.3692;;;;
2021/05/10 09:24:10;;;;;;;0.8;0.4;;;;;;;29.96;21.12793;930.3373;;;;
2021/05/10 09:26:37;;;;;;;0.6;0.3;;;;;;;30.19;21.42578;930.5186;;;;
2021/05/10 09:29:03;;;;;;;0.4;0.1;;;;;;;29.78;21.0127;930.5047;;;;
2021/05/10 09:31:30;;;;;;;1;0.3;;;;;;;29.93;22.46387;930.4253;;;;
2021/05/10 09:33:55;;;;;;;0.5;0.3;;;;;;;30.07;23.6875;930.3531;;;;
2021/05/10 09:36:20;;;;;;;0.4;0.2;;;;;;;30.47;22.63379;930.4675;;;;
2021/05/10 09:38:46;;;;;;;0.9;0.3;;;;;;;30.65;20.80273;930.4494;;;;
2021/05/10 09:41:11;;;;;;;2.7;0.3;;;;;;;30.68;21.60449;930.3614;;;;
2021/05/10 09:43:36;;;;;;;0.7;0.3;;;;;;;30.18;21.12695;930.3311;;;;
2021/05/10 09:46:01;;;;;;;0.3;0.2;;;;;;;29.81;22.04004;930.283;;;;
2021/05/10 09:48:28;;;;;;;0.4;0.3;;;;;;;29.86;21.82715;930.2819;;;;
2021/05/10 09:50:53;;;;;;;0.2;0.2;;;;;;;30.51;21.65625;930.4017;;;;
2021/05/10 09:53:18;;;;;;;1.3;0.7;;;;;;;31.19;20.59961;930.4454;;;;
2021/05/10 09:55:47;;;;;;;3.7;0.8;;;;;;;31.57;21.44336;930.6114;;;;
2021/05/10 09:58:09;;;;;;;1.1;0.4;;;;;;;32.14;20.4873;930.6284;;;;
2021/05/10 10:00:35;;;;;;;2.2;0.9;;;;;;;31.9;20.12891;930.5642;;;;
2021/05/10 10:03:01;;;;;;;1.4;0.4;;;;;;;31.87;19.70801;930.6389;;;;
2021/05/10 10:05:28;;;;;;;0.7;0.5;;;;;;;31.67;21.08887;930.5903;;;;
2021/05/10 10:07:53;;;;;;;1.5;0.5;;;;;;;31.16;22.35645;930.6373;;;;
2021/05/10 10:10:19;;;;;;;1.8;0.8;;;;;;;30.59;23.47559;930.6629;;;;
2021/05/10 10:12:44;;;;;;;3.5;0.5;;;;;;;30.44;23.55176;930.6705;;;;
2021/05/10 10:15:10;;;;;;;0.2;0.1;;;;;;;30.52;21.41699;930.7969;;;;
2021/05/10 10:17:36;;;;;;;2.6;1;;;;;;;30.92;21.40039;930.9276;;;;
2021/05/10 10:20:04;;;;;;;0.3;0.2;;;;;;;31.06;22.18457;930.8897;;;;
2021/05/10 10:22:27;;;;;;;0.9;0.2;;;;;;;31.43;19.98828;930.813;;;;
2021/05/10 10:24:52;;;;;;;1.3;0.5;;;;;;;32.03;22.67578;930.8176;;;;
2021/05/10 10:27:19;;;;;;;0.7;0.5;;;;;;;32.45;21.31738;930.7913;;;;
2021/05/10 10:29:44;;;;;;;0.4;0.3;;;;;;;32.67;20.82324;930.6777;;;;
2021/05/10 10:32:12;;;;;;;0.1;0.1;;;;;;;32.78;19.20703;930.6803;;;;
2021/05/10 10:34:37;;;;;;;0.3;0.3;;;;;;;33.13;19.27051;930.6155;;;;
2021/05/10 10:37:01;;;;;;;3.7;0.4;;;;;;;32.41;20.97949;930.6638;;;;
2021/05/10 10:39:27;;;;;;;0.3;0.2;;;;;;;31.24;22.0498;930.5928;;;;
2021/05/10 10:41:54;;;;;;;1.9;0.5;;;;;;;29.65;23.06934;930.6569;;;;
2021/05/10 10:44:19;;;;;;;2;0.6;;;;;;;28.88;24.38672;930.3926;;;;
2021/05/10 10:46:44;;;;;;;0.4;0.4;;;;;;;28.19;25.20508;930.545;;;;
2021/05/10 10:49:10;;;;;;;1.9;0.7;;;;;;;27.79;25.4668;930.5385;;;;
2021/05/10 10:51:36;;;;;;;1;0.5;;;;;;;27.64;25.53027;930.5758;;;;
2021/05/10 10:54:01;;;;;;;0.4;0.3;;;;;;;27.23;26.64551;930.5206;;;;
2021/05/10 10:56:26;;;;;;;6.2;0.7;;;;;;;27.06;26.07813;930.5322;;;;
2021/05/10 10:58:52;;;;;;;0.3;0.2;;;;;;;27.04;26.94238;930.4717;;;;
2021/05/10 11:01:23;;;;;;;2.5;0.4;;;;;;;26.86;25.78223;930.469;;;;
2021/05/10 11:03:44;;;;;;;0.4;0.4;;;;;;;26.8;26.94043;930.4149;;;;
2021/05/10 11:06:09;;;;;;;3.4;0.6;;;;;;;27.09;26.95801;930.3892;;;;
2021/05/10 11:08:34;;;;;;;1.6;0.4;;;;;;;27.33;25.47754;930.4394;;;;
2021/05/10 11:11:00;;;;;;;0.7;0.4;;;;;;;27.06;27.02734;930.5391;;;;
2021/05/10 11:13:25;;;;;;;1.3;0.7;;;;;;;26.84;26.46875;930.634;;;;
2021/05/10 11:15:50;;;;;;;1.1;0.3;;;;;;;27.12;26.33008;930.654;;;;
2021/05/10 11:18:15;;;;;;;0.9;0.4;;;;;;;27.38;25.61035;930.6555;;;;
2021/05/10 11:20:40;;;;;;;7.7;0.7;;;;;;;27.08;25.66406;930.6459;;;;
2021/05/10 11:23:05;;;;;;;1;0.6;;;;;;;27.14;25.49023;930.637;;;;
2021/05/10 11:25:32;;;;;;;1.4;0.4;;;;;;;27.34;25.69141;930.5019;;;;
2021/05/10 11:27:57;;;;;;;0.8;0.5;;;;;;;27.36;24.31641;930.5286;;;;
2021/05/10 11:30:22;;;;;;;0.3;0.3;;;;;;;27.88;26.54199;930.5931;;;;
2021/05/10 11:32:47;;;;;;;0.3;0.2;;;;;;;28.38;26.14355;930.562;;;;
2021/05/10 11:35:12;;;;;;;0.1;0.1;;;;;;;28.41;26.33496;930.4893;;;;
2021/05/10 11:37:37;;;;;;;0.7;0.4;;;;;;;28.38;25.97656;930.5535;;;;
2021/05/10 11:40:03;;;;;;;2.1;0.4;;;;;;;28.36;24.65625;930.4717;;;;
2021/05/10 11:42:28;;;;;;;0.1;0.1;;;;;;;28.51;25.0918;930.5927;;;;
2021/05/10 11:44:53;;;;;;;0.5;0.4;;;;;;;28.46;24.68555;930.6344;;;;
2021/05/10 11:47:18;;;;;;;1.7;0.7;;;;;;;28.27;24.79297;930.6555;;;;
2021/05/10 11:49:49;;;;;;;1;0.6;;;;;;;28.23;25.18359;930.5858;;;;
2021/05/10 11:52:13;;;;;;;0.8;0.4;;;;;;;28.27;25.82715;930.553;;;;
2021/05/10 11:54:38;;;;;;;0.3;0.3;;;;;;;28.58;27.37988;930.5276;;;;
2021/05/10 11:57:03;;;;;;;1.2;0.8;;;;;;;28.32;26.5791;930.3926;;;;
2021/05/10 11:59:42;;;;;;;0.7;0.3;;;;;;;28.12;27.44727;930.3261;;;;
2021/05/10 12:01:53;;;;;;;1.4;0.8;;;;;;;27.79;27.91309;930.3459;;;;
2021/05/10 12:04:22;;;;;;;0.2;0.2;;;;;;;26.97;28.50293;930.4531;;;;
2021/05/10 12:06:47;;;;;;;3.1;0.5;;;;;;;27.03;28.4707;930.4022;;;;
2021/05/10 12:09:12;;;;;;;1.1;0.4;;;;;;;27.11;27.48047;930.3578;;;;
2021/05/10 12:11:37;;;;;;;0.4;0.3;;;;;;;27.1;26.59082;930.3428;;;;
2021/05/10 12:14:02;;;;;;;0.2;0.1;;;;;;;27.11;28.2627;930.3346;;;;
2021/05/10 12:16:27;;;;;;;0.2;0.1;;;;;;;27.19;26.82129;930.3398;;;;
2021/05/10 12:19:03;;;;;;;2.2;0.8;;;;;;;27.48;29.69727;930.3908;;;;
2021/05/10 12:21:28;;;;;;;0.4;0.4;;;;;;;27.59;26.99902;930.3444;;;;
2021/05/10 12:23:53;;;;;;;0.4;0.3;;;;;;;28.09;26.89844;930.2736;;;;
2021/05/10 12:26:19;;;;;;;0.3;0.2;;;;;;;28.12;26.02148;930.2278;;;;
2021/05/10 12:28:44;;;;;;;0.7;0.4;;;;;;;27.89;26.13867;930.1813;;;;
2021/05/10 12:31:11;;;;;;;1.2;0.5;;;;;;;27.43;27.58301;930.1705;;;;
2021/05/10 12:33:36;;;;;;;0.5;0.4;;;;;;;27.51;28.9043;930.2218;;;;
2021/05/10 12:36:03;;;;;;;0.2;0.2;;;;;;;27.29;27.23047;930.2672;;;;
2021/05/10 12:38:27;;;;;;;0.4;0.2;;;;;;;27.26;26.71875;930.2137;;;;
2021/05/10 12:40:53;;;;;;;0.8;0.5;;;;;;;27.02;27.34375;930.1816;;;;
2021/05/10 12:43:18;;;;;;;0.4;0.4;;;;;;;26.67;28.04492;930.1883;;;;
2021/05/10 12:45:43;;;;;;;1;0.3;;;;;;;26.81;27.53223;930.2897;;;;
2021/05/10 12:48:08;;;;;;;0.2;0.2;;;;;;;27.07;27.2168;930.1443;;;;
2021/05/10 12:50:33;;;;;;;0.3;0.1;;;;;;;26.83;27.14355;930.2213;;;;
2021/05/10 12:53:01;;;;;;;1;0.5;;;;;;;26.82;28.39844;930.2059;;;;
2021/05/10 12:55:25;;;;;;;0.1;0.1;;;;;;;26.93;28.2041;930.1316;;;;
2021/05/10 12:57:50;;;;;;;1.7;0.5;;;;;;;27.11;29.27051;930.0331;;;;
2021/05/10 13:00:15;;;;;;;0.3;0.3;;;;;;;27.14;24.84961;930.1688;;;;
2021/05/10 13:02:44;;;;;;;0.7;0.4;;;;;;;27.59;25.88379;930.1671;;;;
2021/05/10 13:05:05;;;;;;;1;0.8;;;;;;;28.09;25.97168;930.111;;;;
2021/05/10 13:07:30;;;;;;;1.2;0.6;;;;;;;27.99;29.01953;930.0592;;;;
2021/05/10 13:09:55;;;;;;;0.8;0.3;;;;;;;28.19;27.19043;930.0574;;;;
2021/05/10 13:12:20;;;;;;;0.1;0.1;;;;;;;28;26.03809;930.0453;;;;
2021/05/10 13:14:47;;;;;;;0.8;0.4;;;;;;;27.87;24.40332;930.0721;;;;
2021/05/10 13:17:14;;;;;;;3.3;0.8;;;;;;;28.11;25.85352;930.1202;;;;
2021/05/10 13:19:48;;;;;;;0.6;0.5;;;;;;;28.35;24.53613;930.0852;;;;
2021/05/10 13:22:23;;;;;;;4.3;0.4;;;;;;;28.2;25.38379;930.0597;;;;
2021/05/10 13:27:23;;;;;;;0.7;0.4;;;;;;;27.73;26.42578;930.1261;;;;
2021/05/10 13:31:42;;;;;;;1.1;0.4;;;;;;;27.65;25.92285;930.0997;;;;
2021/05/10 13:34:18;;;;;;;0.7;0.4;;;;;;;27.69;26.35254;930.0451;;;;
2021/05/10 13:36:34;;;;;;;1.7;0.6;;;;;;;27.59;26.31152;930.0889;;;;
2021/05/10 13:38:59;;;;;;;0.9;0.3;;;;;;;27.35;29.21484;930.0999;;;;
2021/05/10 13:41:25;;;;;;;2.7;0.5;;;;;;;27.21;28.31738;930.0442;;;;
2021/05/10 13:43:57;;;;;;;3.6;0.5;;;;;;;26.8;28.06543;929.9011;;;;
2021/05/10 13:46:14;;;;;;;2;0.6;;;;;;;26.65;28.77832;930.0273;;;;
2021/05/10 13:48:41;;;;;;;2;0.5;;;;;;;26.67;27.96289;929.9707;;;;
2021/05/10 13:51:06;;;;;;;0.4;0.3;;;;;;;26.74;27.62305;930.0921;;;;
2021/05/10 13:53:34;;;;;;;0.3;0.3;;;;;;;26.83;28.18555;930.0906;;;;
2021/05/10 13:55:59;;;;;;;2.5;0.5;;;;;;;26.81;27.58008;930.0776;;;;
2021/05/10 13:58:25;;;;;;;0.6;0.3;;;;;;;26.76;26.71191;930.1545;;;;
2021/05/10 14:00:49;;;;;;;0.2;0.2;;;;;;;26.69;27.32422;930.1595;;;;
2021/05/10 14:03:15;;;;;;;0.6;0.2;;;;;;;26.65;27.51172;930.0975;;;;
2021/05/10 14:05:42;;;;;;;0.2;0.2;;;;;;;26.66;27.40527;930.1508;;;;
2021/05/10 14:08:07;;;;;;;1;0.5;;;;;;;26.68;27.15723;930.1853;;;;
2021/05/10 14:10:33;;;;;;;1.9;0.6;;;;;;;26.47;28.6123;930.1599;;;;
2021/05/10 14:12:58;;;;;;;0.8;0.5;;;;;;;26.47;28.83789;930.1677;;;;
2021/05/10 14:15:26;;;;;;;5;1;;;;;;;26.3;29.25293;930.175;;;;
2021/05/10 14:17:51;;;;;;;1.2;0.7;;;;;;;26.17;28.13281;930.1561;;;;
2021/05/10 14:20:19;;;;;;;0.7;0.6;;;;;;;26.37;28.15723;930.1191;;;;
2021/05/10 14:22:41;;;;;;;2;0.6;;;;;;;26.37;29.1748;930.1014;;;;
2021/05/10 14:25:08;;;;;;;0.4;0.4;;;;;;;26.3;28.68457;930.0976;;;;
2021/05/10 14:27:33;;;;;;;0.8;0.5;;;;;;;26.36;28.6416;930.0723;;;;